createdAt,value
2018-07-31T00:01:39.484Z,6.87
2018-07-31T00:04:08.577Z,7.57
2018-07-31T00:06:37.741Z,7.37
2018-07-31T00:09:08.535Z,7.17
2018-07-31T00:11:37.737Z,7.30
2018-07-31T00:14:06.840Z,8.10
2018-07-31T00:16:36.015Z,6.90
2018-07-31T00:19:05.394Z,7.90
2018-07-31T00:21:34.488Z,7.77
2018-07-31T00:24:03.615Z,8.20
2018-07-31T00:26:32.679Z,7.63
2018-07-31T00:29:01.815Z,8.00
2018-07-31T00:31:30.995Z,8.53
2018-07-31T00:34:00.192Z,8.13
2018-07-31T00:36:29.335Z,7.63
2018-07-31T00:38:58.521Z,6.80
2018-07-31T00:41:27.592Z,7.20
2018-07-31T00:43:56.676Z,7.73
2018-07-31T00:46:25.816Z,7.80
2018-07-31T00:48:54.945Z,7.93
2018-07-31T00:51:24.229Z,7.30
2018-07-31T00:53:53.736Z,6.80
2018-07-31T00:56:22.927Z,7.40
2018-07-31T00:58:52.319Z,7.17
2018-07-31T01:01:21.414Z,7.00
2018-07-31T01:03:50.572Z,7.30
2018-07-31T01:06:23.802Z,7.87
2018-07-31T01:08:52.920Z,7.47
2018-07-31T01:11:22.016Z,7.57
2018-07-31T01:13:51.228Z,7.20
2018-07-31T01:16:20.362Z,7.47
2018-07-31T01:18:49.946Z,8.03
2018-07-31T01:21:19.004Z,7.03
2018-07-31T01:23:48.085Z,7.10
2018-07-31T01:26:17.148Z,7.10
2018-07-31T01:28:46.228Z,6.87
2018-07-31T01:31:15.293Z,7.10
2018-07-31T01:33:44.382Z,6.17
2018-07-31T01:36:15.292Z,7.20
2018-07-31T01:38:44.197Z,6.70
2018-07-31T01:41:13.315Z,6.80
2018-07-31T01:43:42.498Z,6.00
2018-07-31T01:46:11.646Z,6.67
2018-07-31T01:48:40.787Z,6.43
2018-07-31T01:51:10.018Z,6.27
2018-07-31T01:53:39.253Z,6.33
2018-07-31T01:56:08.386Z,7.03
2018-07-31T01:58:37.522Z,6.47
2018-07-31T02:01:06.858Z,7.20
2018-07-31T02:03:36.094Z,6.33
2018-07-31T02:06:05.189Z,6.83
2018-07-31T02:08:34.478Z,6.30
2018-07-31T02:11:03.617Z,5.90
2018-07-31T02:13:32.700Z,6.27
2018-07-31T02:16:01.957Z,6.20
2018-07-31T02:18:31.045Z,6.37
2018-07-31T02:21:00.291Z,6.70
2018-07-31T02:23:29.357Z,6.07
2018-07-31T02:25:58.471Z,6.13
2018-07-31T02:28:27.579Z,5.73
2018-07-31T02:30:56.679Z,6.47
2018-07-31T02:33:25.830Z,6.00
2018-07-31T02:35:54.916Z,5.63
2018-07-31T02:38:24.553Z,6.63
2018-07-31T02:40:53.617Z,7.00
2018-07-31T02:43:22.736Z,6.10
2018-07-31T02:45:51.820Z,5.93
2018-07-31T02:48:20.960Z,6.50
2018-07-31T02:50:50.130Z,5.80
2018-07-31T02:53:19.255Z,6.53
2018-07-31T02:55:49.328Z,6.17
2018-07-31T02:58:18.658Z,6.40
2018-07-31T03:00:47.766Z,6.00
2018-07-31T03:03:16.864Z,6.17
2018-07-31T03:05:45.967Z,6.37
2018-07-31T03:08:15.088Z,5.70
2018-07-31T03:10:44.228Z,5.63
2018-07-31T03:13:13.366Z,5.93
2018-07-31T03:15:42.494Z,6.00
2018-07-31T03:18:11.594Z,5.50
2018-07-31T03:20:40.706Z,6.07
2018-07-31T03:23:09.956Z,6.57
2018-07-31T03:25:39.033Z,5.57
2018-07-31T03:28:08.142Z,5.97
2018-07-31T03:30:37.161Z,6.53
2018-07-31T03:33:06.412Z,5.83
2018-07-31T03:35:35.523Z,6.10
2018-07-31T03:38:04.625Z,6.50
2018-07-31T03:40:33.699Z,6.20
2018-07-31T03:43:02.817Z,6.37
2018-07-31T03:45:32.003Z,5.53
2018-07-31T03:48:01.109Z,6.40
2018-07-31T03:50:30.236Z,6.60
2018-07-31T03:53:00.555Z,6.00
2018-07-31T03:55:29.712Z,5.50
2018-07-31T03:57:58.869Z,5.80
2018-07-31T04:00:27.987Z,6.10
2018-07-31T04:03:05.066Z,9.20
2018-07-31T04:05:34.255Z,8.00
2018-07-31T04:08:03.300Z,6.27
2018-07-31T04:10:32.492Z,6.47
2018-07-31T04:13:02.202Z,6.90
2018-07-31T04:15:31.577Z,7.00
2018-07-31T04:18:00.826Z,7.40
2018-07-31T04:20:30.079Z,6.80
2018-07-31T04:22:59.313Z,6.10
2018-07-31T04:25:28.575Z,6.40
2018-07-31T04:27:57.616Z,7.03
2018-07-31T04:30:26.948Z,5.60
2018-07-31T04:32:56.487Z,6.30
2018-07-31T04:35:25.531Z,7.30
2018-07-31T04:37:54.904Z,6.23
2018-07-31T04:40:23.964Z,6.40
2018-07-31T04:42:53.042Z,5.90
2018-07-31T04:45:23.894Z,6.40
2018-07-31T04:47:54.122Z,5.50
2018-07-31T04:50:23.199Z,7.60
2018-07-31T04:52:52.700Z,6.57
2018-07-31T04:55:21.831Z,7.30
2018-07-31T04:57:50.959Z,6.30
2018-07-31T05:00:20.161Z,6.13
2018-07-31T05:02:49.335Z,6.27
2018-07-31T05:05:18.405Z,5.83
2018-07-31T05:07:47.522Z,6.43
2018-07-31T05:10:16.619Z,7.07
2018-07-31T05:12:45.744Z,6.73
2018-07-31T05:15:14.801Z,5.60
2018-07-31T05:17:43.908Z,5.80
2018-07-31T05:20:13.005Z,6.27
2018-07-31T05:22:42.243Z,6.20
2018-07-31T05:25:11.375Z,6.37
2018-07-31T05:27:40.558Z,6.30
2018-07-31T05:30:11.133Z,6.37
2018-07-31T05:32:40.576Z,6.57
2018-07-31T05:35:10.507Z,6.97
2018-07-31T05:37:40.079Z,8.70
2018-07-31T05:40:09.979Z,6.67
2018-07-31T05:42:39.565Z,9.93
2018-07-31T05:45:08.800Z,8.47
2018-07-31T05:47:38.921Z,8.47
2018-07-31T05:50:08.773Z,7.63
2018-07-31T05:52:38.428Z,14.47
2018-07-31T05:55:07.551Z,6.87
2018-07-31T05:57:36.535Z,7.40
2018-07-31T06:00:07.933Z,6.90
2018-07-31T06:02:37.221Z,6.50
2018-07-31T06:05:06.445Z,6.03
2018-07-31T06:07:35.552Z,6.00
2018-07-31T06:10:06.201Z,6.73
2018-07-31T06:12:35.414Z,6.03
2018-07-31T06:15:05.152Z,7.17
2018-07-31T06:17:34.197Z,6.53
2018-07-31T06:20:03.593Z,7.00
2018-07-31T06:22:32.733Z,6.37
2018-07-31T06:25:01.858Z,7.33
2018-07-31T06:27:30.983Z,5.77
2018-07-31T06:30:00.163Z,6.60
2018-07-31T06:32:29.240Z,6.37
2018-07-31T06:34:58.359Z,6.07
2018-07-31T06:37:27.510Z,6.67
2018-07-31T06:39:56.756Z,7.07
2018-07-31T06:42:25.871Z,7.17
2018-07-31T06:44:55.149Z,6.43
2018-07-31T06:47:24.794Z,6.27
2018-07-31T06:49:54.154Z,7.07
2018-07-31T06:52:23.929Z,6.93
2018-07-31T06:54:53.285Z,8.03
2018-07-31T06:57:22.604Z,6.60
2018-07-31T06:59:52.257Z,6.33
2018-07-31T07:02:21.643Z,6.97
2018-07-31T07:04:50.881Z,5.90
2018-07-31T07:07:20.169Z,6.77
2018-07-31T07:09:49.356Z,6.00
2018-07-31T07:12:18.434Z,6.80
2018-07-31T07:14:47.507Z,6.47
2018-07-31T07:17:16.695Z,6.97
2018-07-31T07:19:45.775Z,6.90
2018-07-31T07:22:14.832Z,6.77
2018-07-31T07:24:44.010Z,6.60
2018-07-31T07:27:13.073Z,7.60
2018-07-31T07:29:42.097Z,6.90
2018-07-31T07:32:11.189Z,7.87
2018-07-31T07:34:40.382Z,6.80
2018-07-31T07:37:09.454Z,7.77
2018-07-31T07:39:38.530Z,6.83
2018-07-31T07:42:07.699Z,6.90
2018-07-31T07:44:37.000Z,6.90
2018-07-31T07:47:06.327Z,7.93
2018-07-31T07:49:41.740Z,7.20
2018-07-31T07:52:10.968Z,7.63
2018-07-31T07:54:40.071Z,7.50
2018-07-31T07:57:09.209Z,7.27
2018-07-31T07:59:38.671Z,7.50
2018-07-31T08:02:07.821Z,6.87
2018-07-31T08:04:36.983Z,7.30
2018-07-31T08:07:07.106Z,7.97
2018-07-31T08:09:36.410Z,7.67
2018-07-31T08:12:06.430Z,7.20
2018-07-31T08:14:36.251Z,7.83
2018-07-31T08:17:05.738Z,7.20
2018-07-31T08:19:35.403Z,8.37
2018-07-31T08:22:04.788Z,7.30
2018-07-31T08:24:33.945Z,6.53
2018-07-31T08:27:03.147Z,7.37
2018-07-31T08:29:32.273Z,7.13
2018-07-31T08:32:01.595Z,6.30
2018-07-31T08:34:30.697Z,7.67
2018-07-31T08:36:59.876Z,6.40
2018-07-31T08:39:29.042Z,7.17
2018-07-31T08:41:58.204Z,7.90
2018-07-31T08:44:27.368Z,7.00
2018-07-31T08:46:56.499Z,7.00
2018-07-31T08:49:25.572Z,6.60
2018-07-31T08:51:54.747Z,7.43
2018-07-31T08:54:23.979Z,7.70
2018-07-31T08:56:53.209Z,7.90
2018-07-31T08:59:22.321Z,7.30
2018-07-31T09:01:51.508Z,6.73
2018-07-31T09:04:20.662Z,7.27
2018-07-31T09:06:49.828Z,7.30
2018-07-31T09:09:19.080Z,7.10
2018-07-31T09:11:48.274Z,7.10
2018-07-31T09:14:20.109Z,7.43
2018-07-31T09:16:49.331Z,7.90
2018-07-31T09:19:18.818Z,7.27
2018-07-31T09:21:48.232Z,11.90
2018-07-31T09:24:17.573Z,6.93
2018-07-31T09:26:47.450Z,6.07
2018-07-31T09:29:16.924Z,7.73
2018-07-31T09:31:46.343Z,8.03
2018-07-31T09:34:15.649Z,6.83
2018-07-31T09:36:44.842Z,7.80
2018-07-31T09:39:13.961Z,7.33
2018-07-31T09:41:44.169Z,7.17
2018-07-31T09:44:13.371Z,6.60
2018-07-31T09:46:42.491Z,6.90
2018-07-31T09:49:11.566Z,6.83
2018-07-31T09:51:40.779Z,7.00
2018-07-31T09:54:09.870Z,6.37
2018-07-31T09:56:39.305Z,7.00
2018-07-31T09:59:08.561Z,7.93
2018-07-31T10:01:37.633Z,7.10
2018-07-31T10:04:06.871Z,8.10
2018-07-31T10:06:35.989Z,7.90
2018-07-31T10:09:08.968Z,7.07
2018-07-31T10:11:38.930Z,8.37
2018-07-31T10:14:08.044Z,7.90
2018-07-31T10:16:37.257Z,7.20
2018-07-31T10:19:06.709Z,7.80
2018-07-31T10:21:35.866Z,6.97
2018-07-31T10:24:05.133Z,6.57
2018-07-31T10:26:34.174Z,7.50
2018-07-31T10:29:03.216Z,7.30
2018-07-31T10:31:32.395Z,7.10
2018-07-31T10:34:02.049Z,7.43
2018-07-31T10:36:31.412Z,5.53
2018-07-31T10:39:01.144Z,6.20
2018-07-31T10:41:30.804Z,7.27
2018-07-31T10:44:00.278Z,7.23
2018-07-31T10:46:30.075Z,6.60
2018-07-31T10:48:59.748Z,6.67
2018-07-31T10:51:30.384Z,7.13
2018-07-31T10:53:59.995Z,6.53
2018-07-31T10:56:29.493Z,6.90
2018-07-31T10:58:58.708Z,6.63
2018-07-31T11:01:27.966Z,6.57
2018-07-31T11:03:57.216Z,7.13
2018-07-31T11:06:26.345Z,7.00
2018-07-31T11:08:55.367Z,6.40
2018-07-31T11:11:24.468Z,7.90
2018-07-31T11:13:53.800Z,7.83
2018-07-31T11:16:22.969Z,6.90
2018-07-31T11:18:52.030Z,7.60
2018-07-31T11:21:22.090Z,7.53
2018-07-31T11:23:51.164Z,7.27
2018-07-31T11:26:20.432Z,7.50
2018-07-31T11:28:49.600Z,7.80
2018-07-31T11:31:18.756Z,8.50
2018-07-31T11:33:47.921Z,7.73
2018-07-31T11:36:17.217Z,8.03
2018-07-31T11:38:46.359Z,7.20
2018-07-31T11:41:15.513Z,7.33
2018-07-31T11:43:44.687Z,7.50
2018-07-31T11:46:13.805Z,6.70
2018-07-31T11:48:43.161Z,7.27
2018-07-31T11:51:12.486Z,7.10
2018-07-31T11:53:41.960Z,6.70
2018-07-31T11:56:11.491Z,6.40
2018-07-31T11:58:40.803Z,7.33
2018-07-31T12:01:10.220Z,7.83
2018-07-31T12:03:39.404Z,6.80
2018-07-31T12:06:08.511Z,6.60
2018-07-31T12:08:38.721Z,6.50
2018-07-31T12:11:07.917Z,6.43
2018-07-31T12:13:36.977Z,6.87
2018-07-31T12:16:06.099Z,7.53
2018-07-31T12:18:35.279Z,6.67
2018-07-31T12:21:04.598Z,6.77
2018-07-31T12:23:33.673Z,6.93
2018-07-31T12:26:02.809Z,7.50
2018-07-31T12:28:31.893Z,6.53
2018-07-31T12:31:01.064Z,6.20
2018-07-31T12:33:30.205Z,6.13
2018-07-31T12:35:59.716Z,5.53
2018-07-31T12:38:29.023Z,5.50
2018-07-31T12:40:58.026Z,5.53
2018-07-31T12:43:27.111Z,6.00
2018-07-31T12:45:56.235Z,5.33
2018-07-31T12:48:25.277Z,5.87
2018-07-31T12:50:54.574Z,6.70
2018-07-31T12:53:24.035Z,5.90
2018-07-31T12:55:53.268Z,5.70
2018-07-31T12:58:22.684Z,5.50
2018-07-31T13:00:52.312Z,5.80
2018-07-31T13:03:21.805Z,6.30
2018-07-31T13:05:51.066Z,6.40
2018-07-31T13:08:20.463Z,5.67
2018-07-31T13:10:49.660Z,6.80
2018-07-31T13:13:19.194Z,6.43
2018-07-31T13:15:48.240Z,6.80
2018-07-31T13:18:17.479Z,7.53
2018-07-31T13:20:46.655Z,6.30
2018-07-31T13:23:15.708Z,6.70
2018-07-31T13:25:44.835Z,6.10
2018-07-31T13:28:14.678Z,6.33
2018-07-31T13:30:44.772Z,6.03
2018-07-31T13:33:13.891Z,6.60
2018-07-31T13:35:43.975Z,6.00
2018-07-31T13:38:13.016Z,6.53
2018-07-31T13:40:42.129Z,6.40
2018-07-31T13:43:11.263Z,6.40
2018-07-31T13:45:40.472Z,6.80
2018-07-31T13:48:09.568Z,6.03
2018-07-31T13:50:38.715Z,5.50
2018-07-31T13:53:08.118Z,5.43
2018-07-31T13:55:37.298Z,6.67
2018-07-31T13:58:06.940Z,6.90
2018-07-31T14:00:36.175Z,7.43
2018-07-31T14:03:06.011Z,6.27
2018-07-31T14:05:35.402Z,6.63
2018-07-31T14:08:04.748Z,6.07
2018-07-31T14:10:34.274Z,6.80
2018-07-31T14:13:03.599Z,6.20
2018-07-31T14:15:33.002Z,6.90
2018-07-31T14:18:02.297Z,6.40
2018-07-31T14:20:31.787Z,6.20
2018-07-31T14:23:01.059Z,6.70
2018-07-31T14:25:30.196Z,6.87
2018-07-31T14:27:59.345Z,6.37
2018-07-31T14:30:28.468Z,6.40
2018-07-31T14:32:57.610Z,6.83
2018-07-31T14:35:26.732Z,6.57
2018-07-31T14:37:55.805Z,7.13
2018-07-31T14:40:24.915Z,6.40
2018-07-31T14:42:54.129Z,6.60
2018-07-31T14:45:23.263Z,6.30
2018-07-31T14:47:52.490Z,6.10
2018-07-31T14:50:21.672Z,5.60
2018-07-31T14:52:50.778Z,6.13
2018-07-31T14:55:19.893Z,6.00
2018-07-31T14:57:49.044Z,5.60
2018-07-31T15:00:18.193Z,5.70
2018-07-31T15:02:47.406Z,5.07
2018-07-31T15:05:18.050Z,5.33
2018-07-31T15:07:47.301Z,5.67
2018-07-31T15:10:16.601Z,5.50
2018-07-31T15:12:46.357Z,5.10
2018-07-31T15:15:15.815Z,4.67
2018-07-31T15:17:45.066Z,4.80
2018-07-31T15:20:14.331Z,4.50
2018-07-31T15:22:43.527Z,4.60
2018-07-31T15:25:13.840Z,4.40
2018-07-31T15:27:43.077Z,4.80
2018-07-31T15:30:12.356Z,4.90
2018-07-31T15:32:41.500Z,4.50
2018-07-31T15:35:10.548Z,4.00
2018-07-31T15:37:39.722Z,4.60
2018-07-31T15:40:08.818Z,4.67
2018-07-31T15:42:38.011Z,4.00
2018-07-31T15:45:07.182Z,4.07
2018-07-31T15:47:36.312Z,3.97
2018-07-31T15:50:06.089Z,4.83
2018-07-31T15:52:35.165Z,4.23
2018-07-31T15:55:04.350Z,4.57
2018-07-31T15:57:33.463Z,4.60
2018-07-31T16:00:02.661Z,4.80
2018-07-31T16:02:31.764Z,4.90
2018-07-31T16:05:00.887Z,4.07
2018-07-31T16:07:29.974Z,4.73
2018-07-31T16:09:59.088Z,4.60
2018-07-31T16:12:28.398Z,4.70
2018-07-31T16:14:57.713Z,5.13
2018-07-31T16:17:26.856Z,4.80
2018-07-31T16:19:56.076Z,4.60
2018-07-31T16:22:26.150Z,4.20
2018-07-31T16:24:55.918Z,3.60
2018-07-31T16:27:25.149Z,3.37
2018-07-31T16:29:54.583Z,4.00
2018-07-31T16:32:23.979Z,3.83
2018-07-31T16:34:53.505Z,4.50
2018-07-31T16:37:22.935Z,4.10
2018-07-31T16:39:52.384Z,4.73
2018-07-31T16:42:21.623Z,4.57
2018-07-31T16:44:50.790Z,5.00
2018-07-31T16:47:20.266Z,4.63
2018-07-31T16:49:49.511Z,4.33
2018-07-31T16:52:18.803Z,4.93
2018-07-31T16:54:47.899Z,3.87
2018-07-31T16:57:17.728Z,3.87
2018-07-31T16:59:46.869Z,4.10
2018-07-31T17:02:15.994Z,3.53
2018-07-31T17:04:45.301Z,3.10
2018-07-31T17:07:14.448Z,3.40
2018-07-31T17:09:43.531Z,3.20
2018-07-31T17:12:12.976Z,3.50
2018-07-31T17:14:42.066Z,3.00
2018-07-31T17:17:11.510Z,3.37
2018-07-31T17:19:40.722Z,3.10
2018-07-31T17:22:09.869Z,3.93
2018-07-31T17:24:39.024Z,3.40
2018-07-31T17:27:08.199Z,3.27
2018-07-31T17:29:39.336Z,3.30
2018-07-31T17:32:08.541Z,3.20
2018-07-31T17:34:37.741Z,2.70
2018-07-31T17:37:08.386Z,3.10
2018-07-31T17:39:37.634Z,2.83
2018-07-31T17:42:06.950Z,2.67
2018-07-31T17:44:36.212Z,3.57
2018-07-31T17:47:06.396Z,2.87
2018-07-31T17:49:35.683Z,3.10
2018-07-31T17:52:05.384Z,3.13
2018-07-31T17:54:34.530Z,2.97
2018-07-31T17:57:04.317Z,2.80
2018-07-31T17:59:33.505Z,3.17
2018-07-31T18:02:02.767Z,3.03
2018-07-31T18:04:31.967Z,2.83
2018-07-31T18:07:01.068Z,3.07
2018-07-31T18:09:30.164Z,3.07
2018-07-31T18:11:59.373Z,2.90
2018-07-31T18:14:28.528Z,2.70
2018-07-31T18:16:57.633Z,4.00
2018-07-31T18:19:26.767Z,3.53
2018-07-31T18:21:56.060Z,2.97
2018-07-31T18:24:25.251Z,2.77
2018-07-31T18:26:54.343Z,3.00
2018-07-31T18:29:23.506Z,2.50
2018-07-31T18:31:52.773Z,2.70
2018-07-31T18:34:21.941Z,2.63
2018-07-31T18:36:51.176Z,3.03
2018-07-31T18:39:20.506Z,2.60
2018-07-31T18:41:49.689Z,2.97
2018-07-31T18:44:18.957Z,2.60
2018-07-31T18:46:48.642Z,2.50
2018-07-31T18:49:18.002Z,2.70
2018-07-31T18:51:48.621Z,2.60
2018-07-31T18:54:18.234Z,3.10
2018-07-31T18:56:48.234Z,2.63
2018-07-31T18:59:17.868Z,2.87
2018-07-31T19:01:47.203Z,2.03
2018-07-31T19:04:16.717Z,2.00
2018-07-31T19:06:46.293Z,2.20
2018-07-31T19:09:15.786Z,1.60
2018-07-31T19:11:44.872Z,2.03
2018-07-31T19:14:14.199Z,2.10
2018-07-31T19:16:43.387Z,2.17
2018-07-31T19:19:12.617Z,2.10
2018-07-31T19:21:41.948Z,2.23
2018-07-31T19:24:11.347Z,1.93
2018-07-31T19:26:40.556Z,2.27
2018-07-31T19:29:10.315Z,1.90
2018-07-31T19:31:39.515Z,1.97
2018-07-31T19:34:08.883Z,1.70
2018-07-31T19:36:38.567Z,1.63
2018-07-31T19:39:08.642Z,1.87
2018-07-31T19:41:39.095Z,2.20
2018-07-31T19:44:08.822Z,1.80
2018-07-31T19:46:37.982Z,2.30
2018-07-31T19:49:07.232Z,1.60
2018-07-31T19:51:36.424Z,2.00
2018-07-31T19:54:05.773Z,1.90
2018-07-31T19:56:34.987Z,1.90
2018-07-31T19:59:04.629Z,1.97
2018-07-31T20:01:33.929Z,1.73
2018-07-31T20:04:03.388Z,1.60
2018-07-31T20:06:32.799Z,2.00
2018-07-31T20:09:02.617Z,1.97
2018-07-31T20:11:32.049Z,2.13
2018-07-31T20:14:01.570Z,1.77
2018-07-31T20:16:31.133Z,1.53
2018-07-31T20:19:00.891Z,2.03
2018-07-31T20:21:30.269Z,1.70
2018-07-31T20:24:00.040Z,1.77
2018-07-31T20:26:29.456Z,2.30
2018-07-31T20:28:58.743Z,1.60
2018-07-31T20:31:27.969Z,1.60
2018-07-31T20:33:57.133Z,1.80
2018-07-31T20:36:26.652Z,1.70
2018-07-31T20:38:55.859Z,1.60
2018-07-31T20:41:25.527Z,2.33
2018-07-31T20:43:54.736Z,1.70
2018-07-31T20:46:24.032Z,1.80
2018-07-31T20:48:53.168Z,1.93
2018-07-31T20:51:22.282Z,1.90
2018-07-31T20:53:51.412Z,2.20
2018-07-31T20:56:20.842Z,2.00
2018-07-31T20:58:49.960Z,2.00
2018-07-31T21:01:19.619Z,1.50
2018-07-31T21:03:48.807Z,1.80
2018-07-31T21:06:18.068Z,1.70
2018-07-31T21:08:47.242Z,2.30
2018-07-31T21:11:16.617Z,2.50
2018-07-31T21:13:45.881Z,2.00
2018-07-31T21:16:15.238Z,1.80
2018-07-31T21:18:44.706Z,2.00
2018-07-31T21:21:14.299Z,2.00
2018-07-31T21:23:43.594Z,1.87
2018-07-31T21:26:13.062Z,2.70
2018-07-31T21:28:42.390Z,2.30
2018-07-31T21:31:32.474Z,2.23
2018-07-31T21:34:06.860Z,2.17
2018-07-31T21:36:37.161Z,2.20
2018-07-31T21:39:10.458Z,2.20
2018-07-31T21:41:39.987Z,2.10
2018-07-31T21:44:09.151Z,2.50
2018-07-31T21:46:38.305Z,2.27
2018-07-31T21:49:07.719Z,2.40
2018-07-31T21:51:36.899Z,2.50
2018-07-31T21:54:06.040Z,2.70
2018-07-31T21:56:35.100Z,2.50
2018-07-31T21:59:04.244Z,2.30
2018-07-31T22:01:33.342Z,2.67
2018-07-31T22:04:02.393Z,3.70
2018-07-31T22:06:31.536Z,2.50
2018-07-31T22:09:00.767Z,2.60
2018-07-31T22:11:29.821Z,3.20
2018-07-31T22:13:58.899Z,3.20
2018-07-31T22:16:28.072Z,2.70
2018-07-31T22:18:57.352Z,2.67
2018-07-31T22:21:26.634Z,2.70
2018-07-31T22:23:55.839Z,3.40
2018-07-31T22:26:25.063Z,3.30
2018-07-31T22:28:54.295Z,3.70
2018-07-31T22:31:23.584Z,3.80
2018-07-31T22:33:53.139Z,3.60
2018-07-31T22:36:22.434Z,3.20
2018-07-31T22:38:51.667Z,3.10
2018-07-31T22:41:20.815Z,3.40
2018-07-31T22:43:50.016Z,3.47
2018-07-31T22:46:19.075Z,3.27
2018-07-31T22:48:48.187Z,3.20
2018-07-31T22:51:17.328Z,3.00
2018-07-31T22:53:46.372Z,3.57
2018-07-31T22:56:15.473Z,3.63
2018-07-31T22:58:44.505Z,3.20
2018-07-31T23:01:13.570Z,3.40
2018-07-31T23:03:44.405Z,3.57
2018-07-31T23:06:13.498Z,4.67
2018-07-31T23:08:42.552Z,3.57
2018-07-31T23:11:11.609Z,4.20
2018-07-31T23:13:40.677Z,4.20
2018-07-31T23:16:09.777Z,3.77
2018-07-31T23:18:38.829Z,3.43
2018-07-31T23:21:07.928Z,3.47
2018-07-31T23:23:37.004Z,3.40
2018-07-31T23:26:06.360Z,3.27
2018-07-31T23:28:35.446Z,3.40
2018-07-31T23:31:04.508Z,4.10
2018-07-31T23:33:33.629Z,3.70
2018-07-31T23:36:02.863Z,3.27
2018-07-31T23:38:31.920Z,3.50
2018-07-31T23:41:01.139Z,3.53
2018-07-31T23:43:30.203Z,3.57
2018-07-31T23:45:59.272Z,3.60
2018-07-31T23:48:28.352Z,3.37
2018-07-31T23:50:57.450Z,3.53
2018-07-31T23:53:26.513Z,3.10
2018-07-31T23:55:55.586Z,3.20
2018-07-31T23:58:24.671Z,3.33
